Aérodrome :
LOGIN :

S'inscrire | Disclaimer

   EN    FR    IT 

 










Légende :    VFR   VFR Marginal   IFR   IFR Intensif   IFR Très Intensif
Visi : 
Plafond : 
>= 8 km
>= 3000ft
5 à 8 km
1000 à 3000 ft
1500m à 5 km
500 à 1000 ft
800 à 1500m
200 à 500 ft
< 800m
< 200 ft
Symboles :   Orages  Brouillard  Fortes neiges  Fortes précipitations  Vent > 20 kt
SIGMETs :   Divers  Orages  Givrage  Turbulence  Onde Orograph.  Cendres Volcan.







- Altitude de l'aérodrome : 1516 ft
- Code IATA : AGB


EDMA - Augsburg

DERNIER METAR :
  • 171620Z 22006KT 9999 SCT012 OVC039 03/01 Q1025

METARs EXPIRÉS :
  • 171550Z 23009KT 9999 FEW011 OVC039 03/01 Q1024
  • 171520Z 23009KT 200V260 9999 FEW010 OVC039 03/01 Q1024
  • 171450Z 23008KT 9999 FEW009 BKN039 03/01 Q1023
  • 171420Z 23006KT 9999 SCT008 BKN044 03/01 Q1023
  • 171350Z 22007KT 200V260 9999 BKN008 BKN045 03/01 Q1023

TAF TAF EDMA
Valide du 17 à 15h jusqu'au 18 à 00h UTC


171400Z 1715/1724 23005KT 9000 SCT010 BKN015
TEMPO 1715/1720 4000 -RADZ BR SCT005 BKN008
BECMG 1721/1723 BKN007
Pas de NOTAMs connus pour ce terrain.



MET'MAP, la Météo Aéronautique d'un coup d'oeil ! - Copyright ORBIFLY Décembre 2007 - Disclaimer

ORBIFLY MET'MAP TEAM :

Programmation & Développement : Alexandra Zaïnal
Conception & Développement : Baudouin d'Aumeries
Co-Programmation & Développement : Marc-Olivier Méhu
Soutien technique & logistique : Manuel Goepfert

Contact : metmap@orbifly.com




SOURCES & CREDITS :

   NOAA